sensor_id;sensor_type;location;lat;lon;timestamp;P1;durP1;ratioP1;P2;durP2;ratioP2
59830;SDS011;45711;50.108;13.712;2023-05-19T00:01:20;9.45;;;3.17;;
59830;SDS011;45711;50.108;13.712;2023-05-19T00:03:57;11.80;;;3.47;;
59830;SDS011;45711;50.108;13.712;2023-05-19T00:06:39;8.88;;;3.47;;
59830;SDS011;45711;50.108;13.712;2023-05-19T00:09:15;7.22;;;3.05;;
59830;SDS011;45711;50.108;13.712;2023-05-19T00:11:56;6.97;;;2.67;;
59830;SDS011;45711;50.108;13.712;2023-05-19T00:14:28;7.05;;;2.83;;
59830;SDS011;45711;50.108;13.712;2023-05-19T00:17:13;9.40;;;3.03;;
59830;SDS011;45711;50.108;13.712;2023-05-19T00:19:43;9.90;;;3.25;;
59830;SDS011;45711;50.108;13.712;2023-05-19T00:22:12;12.38;;;2.65;;
59830;SDS011;45711;50.108;13.712;2023-05-19T00:24:39;8.15;;;3.13;;
59830;SDS011;45711;50.108;13.712;2023-05-19T00:27:08;8.57;;;3.10;;
59830;SDS011;45711;50.108;13.712;2023-05-19T00:29:53;8.75;;;3.22;;
59830;SDS011;45711;50.108;13.712;2023-05-19T00:32:19;7.30;;;2.92;;
59830;SDS011;45711;50.108;13.712;2023-05-19T00:37:29;11.38;;;3.30;;
59830;SDS011;45711;50.108;13.712;2023-05-19T00:39:55;7.13;;;2.95;;
59830;SDS011;45711;50.108;13.712;2023-05-19T00:42:22;9.52;;;3.20;;
59830;SDS011;45711;50.108;13.712;2023-05-19T00:44:51;10.10;;;3.30;;
59830;SDS011;45711;50.108;13.712;2023-05-19T00:47:19;7.82;;;3.47;;
59830;SDS011;45711;50.108;13.712;2023-05-19T00:49:48;7.63;;;2.65;;
59830;SDS011;45711;50.108;13.712;2023-05-19T00:52:15;7.75;;;2.53;;
59830;SDS011;45711;50.108;13.712;2023-05-19T00:54:47;11.32;;;3.70;;
59830;SDS011;45711;50.108;13.712;2023-05-19T00:57:15;8.07;;;2.63;;
59830;SDS011;45711;50.108;13.712;2023-05-19T00:59:46;8.20;;;2.63;;
59830;SDS011;45711;50.108;13.712;2023-05-19T01:02:17;11.05;;;2.80;;
59830;SDS011;45711;50.108;13.712;2023-05-19T01:04:49;6.78;;;2.80;;
59830;SDS011;45711;50.108;13.712;2023-05-19T01:07:17;7.72;;;2.95;;
59830;SDS011;45711;50.108;13.712;2023-05-19T01:09:46;8.48;;;2.55;;
59830;SDS011;45711;50.108;13.712;2023-05-19T01:12:23;9.95;;;3.20;;
59830;SDS011;45711;50.108;13.712;2023-05-19T01:14:50;6.88;;;2.67;;
59830;SDS011;45711;50.108;13.712;2023-05-19T01:17:20;9.20;;;3.22;;
59830;SDS011;45711;50.108;13.712;2023-05-19T01:19:59;5.75;;;2.30;;
59830;SDS011;45711;50.108;13.712;2023-05-19T01:25:48;6.93;;;2.80;;
59830;SDS011;45711;50.108;13.712;2023-05-19T01:28:52;6.53;;;2.90;;
59830;SDS011;45711;50.108;13.712;2023-05-19T01:31:43;10.05;;;2.90;;
59830;SDS011;45711;50.108;13.712;2023-05-19T01:34:14;8.73;;;2.92;;
59830;SDS011;45711;50.108;13.712;2023-05-19T01:36:50;6.97;;;3.10;;
59830;SDS011;45711;50.108;13.712;2023-05-19T01:39:22;6.03;;;2.70;;
59830;SDS011;45711;50.108;13.712;2023-05-19T01:41:50;7.60;;;2.90;;
59830;SDS011;45711;50.108;13.712;2023-05-19T01:44:20;10.40;;;3.08;;
59830;SDS011;45711;50.108;13.712;2023-05-19T01:46:51;7.93;;;2.90;;
59830;SDS011;45711;50.108;13.712;2023-05-19T01:49:20;11.02;;;3.28;;
59830;SDS011;45711;50.108;13.712;2023-05-19T01:51:49;7.72;;;2.67;;
59830;SDS011;45711;50.108;13.712;2023-05-19T01:54:15;8.15;;;3.10;;
59830;SDS011;45711;50.108;13.712;2023-05-19T01:56:43;9.05;;;2.97;;
59830;SDS011;45711;50.108;13.712;2023-05-19T01:59:22;12.02;;;3.42;;
59830;SDS011;45711;50.108;13.712;2023-05-19T02:01:58;9.10;;;3.17;;
59830;SDS011;45711;50.108;13.712;2023-05-19T02:04:34;9.75;;;3.08;;
59830;SDS011;45711;50.108;13.712;2023-05-19T02:07:11;11.25;;;3.00;;
59830;SDS011;45711;50.108;13.712;2023-05-19T02:09:47;8.48;;;2.92;;
59830;SDS011;45711;50.108;13.712;2023-05-19T02:12:23;9.90;;;2.92;;
59830;SDS011;45711;50.108;13.712;2023-05-19T02:14:54;7.65;;;3.40;;
59830;SDS011;45711;50.108;13.712;2023-05-19T02:17:28;11.18;;;3.05;;
59830;SDS011;45711;50.108;13.712;2023-05-19T02:22:28;8.32;;;3.80;;
59830;SDS011;45711;50.108;13.712;2023-05-19T02:24:54;9.55;;;4.15;;
59830;SDS011;45711;50.108;13.712;2023-05-19T02:27:22;8.95;;;3.70;;
59830;SDS011;45711;50.108;13.712;2023-05-19T02:29:48;7.30;;;3.65;;
59830;SDS011;45711;50.108;13.712;2023-05-19T02:32:14;11.80;;;4.20;;
59830;SDS011;45711;50.108;13.712;2023-05-19T02:34:41;9.13;;;4.35;;
59830;SDS011;45711;50.108;13.712;2023-05-19T02:37:09;12.98;;;4.13;;
59830;SDS011;45711;50.108;13.712;2023-05-19T02:39:35;9.88;;;3.63;;
59830;SDS011;45711;50.108;13.712;2023-05-19T02:42:00;8.68;;;3.78;;
59830;SDS011;45711;50.108;13.712;2023-05-19T02:44:26;10.25;;;4.43;;
59830;SDS011;45711;50.108;13.712;2023-05-19T02:46:52;7.85;;;3.80;;
59830;SDS011;45711;50.108;13.712;2023-05-19T02:49:18;13.05;;;4.97;;
59830;SDS011;45711;50.108;13.712;2023-05-19T02:51:45;11.65;;;4.85;;
59830;SDS011;45711;50.108;13.712;2023-05-19T02:54:13;12.32;;;4.40;;
59830;SDS011;45711;50.108;13.712;2023-05-19T02:59:26;20.33;;;7.13;;
59830;SDS011;45711;50.108;13.712;2023-05-19T03:01:53;15.93;;;5.05;;
59830;SDS011;45711;50.108;13.712;2023-05-19T03:04:20;11.02;;;4.68;;
59830;SDS011;45711;50.108;13.712;2023-05-19T03:07:07;11.80;;;4.07;;
59830;SDS011;45711;50.108;13.712;2023-05-19T03:09:34;7.15;;;3.63;;
59830;SDS011;45711;50.108;13.712;2023-05-19T03:12:12;9.25;;;3.90;;
59830;SDS011;45711;50.108;13.712;2023-05-19T03:14:38;8.98;;;4.10;;
59830;SDS011;45711;50.108;13.712;2023-05-19T03:17:04;11.25;;;4.20;;
59830;SDS011;45711;50.108;13.712;2023-05-19T03:19:31;10.10;;;4.10;;
59830;SDS011;45711;50.108;13.712;2023-05-19T03:21:57;12.80;;;4.80;;
59830;SDS011;45711;50.108;13.712;2023-05-19T03:24:24;15.75;;;4.57;;
59830;SDS011;45711;50.108;13.712;2023-05-19T03:26:52;14.18;;;4.53;;
59830;SDS011;45711;50.108;13.712;2023-05-19T03:29:19;14.32;;;3.92;;
59830;SDS011;45711;50.108;13.712;2023-05-19T03:31:45;9.20;;;3.70;;
59830;SDS011;45711;50.108;13.712;2023-05-19T03:34:11;6.72;;;3.47;;
59830;SDS011;45711;50.108;13.712;2023-05-19T03:36:36;8.13;;;3.65;;
59830;SDS011;45711;50.108;13.712;2023-05-19T03:39:05;9.13;;;3.35;;
59830;SDS011;45711;50.108;13.712;2023-05-19T03:41:32;10.27;;;3.78;;
59830;SDS011;45711;50.108;13.712;2023-05-19T03:43:58;5.90;;;3.78;;
59830;SDS011;45711;50.108;13.712;2023-05-19T03:46:24;10.02;;;3.80;;
59830;SDS011;45711;50.108;13.712;2023-05-19T03:48:50;6.78;;;3.60;;
59830;SDS011;45711;50.108;13.712;2023-05-19T03:51:15;7.72;;;3.70;;
59830;SDS011;45711;50.108;13.712;2023-05-19T03:53:41;10.48;;;4.10;;
59830;SDS011;45711;50.108;13.712;2023-05-19T03:56:08;12.60;;;4.50;;
59830;SDS011;45711;50.108;13.712;2023-05-19T03:58:43;14.05;;;5.13;;
59830;SDS011;45711;50.108;13.712;2023-05-19T04:01:13;14.13;;;4.45;;
59830;SDS011;45711;50.108;13.712;2023-05-19T04:13:24;9.63;;;4.80;;
59830;SDS011;45711;50.108;13.712;2023-05-19T04:16:34;7.30;;;4.28;;
59830;SDS011;45711;50.108;13.712;2023-05-19T04:19:42;15.75;;;3.63;;
59830;SDS011;45711;50.108;13.712;2023-05-19T04:22:29;9.55;;;3.70;;
59830;SDS011;45711;50.108;13.712;2023-05-19T04:25:21;12.95;;;4.57;;
59830;SDS011;45711;50.108;13.712;2023-05-19T04:28:32;17.42;;;4.70;;
59830;SDS011;45711;50.108;13.712;2023-05-19T04:34:57;11.80;;;4.22;;
59830;SDS011;45711;50.108;13.712;2023-05-19T04:37:52;11.02;;;3.92;;
59830;SDS011;45711;50.108;13.712;2023-05-19T04:40:48;16.40;;;4.10;;
59830;SDS011;45711;50.108;13.712;2023-05-19T04:43:27;10.30;;;4.38;;
59830;SDS011;45711;50.108;13.712;2023-05-19T04:46:00;14.88;;;4.07;;
59830;SDS011;45711;50.108;13.712;2023-05-19T04:48:53;9.43;;;4.40;;
59830;SDS011;45711;50.108;13.712;2023-05-19T05:05:13;10.38;;;4.55;;
59830;SDS011;45711;50.108;13.712;2023-05-19T05:11:06;12.88;;;3.88;;
59830;SDS011;45711;50.108;13.712;2023-05-19T05:44:59;5.75;;;2.90;;
59830;SDS011;45711;50.108;13.712;2023-05-19T06:05:48;17.08;;;3.03;;
59830;SDS011;45711;50.108;13.712;2023-05-19T06:09:44;7.65;;;2.85;;
59830;SDS011;45711;50.108;13.712;2023-05-19T06:13:12;12.60;;;3.70;;
59830;SDS011;45711;50.108;13.712;2023-05-19T06:19:17;8.18;;;3.08;;
59830;SDS011;45711;50.108;13.712;2023-05-19T06:25:20;10.57;;;3.17;;
59830;SDS011;45711;50.108;13.712;2023-05-19T06:35:27;6.70;;;3.72;;
59830;SDS011;45711;50.108;13.712;2023-05-19T06:37:58;8.82;;;3.75;;
59830;SDS011;45711;50.108;13.712;2023-05-19T06:40:35;6.88;;;3.38;;
59830;SDS011;45711;50.108;13.712;2023-05-19T06:43:01;10.68;;;3.50;;
59830;SDS011;45711;50.108;13.712;2023-05-19T06:45:26;14.23;;;3.75;;
59830;SDS011;45711;50.108;13.712;2023-05-19T06:48:03;11.43;;;3.53;;
59830;SDS011;45711;50.108;13.712;2023-05-19T06:50:55;11.80;;;3.45;;
59830;SDS011;45711;50.108;13.712;2023-05-19T06:53:28;20.73;;;3.92;;
59830;SDS011;45711;50.108;13.712;2023-05-19T06:55:58;13.75;;;4.35;;
59830;SDS011;45711;50.108;13.712;2023-05-19T06:58:30;19.02;;;4.95;;
59830;SDS011;45711;50.108;13.712;2023-05-19T07:01:14;12.57;;;4.35;;
59830;SDS011;45711;50.108;13.712;2023-05-19T07:03:47;7.82;;;4.53;;
59830;SDS011;45711;50.108;13.712;2023-05-19T07:06:13;10.20;;;3.78;;
59830;SDS011;45711;50.108;13.712;2023-05-19T07:08:54;10.65;;;4.53;;
59830;SDS011;45711;50.108;13.712;2023-05-19T07:11:37;8.43;;;3.53;;
59830;SDS011;45711;50.108;13.712;2023-05-19T07:14:17;31.65;;;5.43;;
59830;SDS011;45711;50.108;13.712;2023-05-19T07:16:52;5.93;;;3.60;;
59830;SDS011;45711;50.108;13.712;2023-05-19T07:19:29;6.82;;;2.88;;
59830;SDS011;45711;50.108;13.712;2023-05-19T07:22:17;6.32;;;2.97;;
59830;SDS011;45711;50.108;13.712;2023-05-19T07:31:26;5.18;;;3.15;;
59830;SDS011;45711;50.108;13.712;2023-05-19T07:34:01;7.97;;;2.92;;
59830;SDS011;45711;50.108;13.712;2023-05-19T07:37:14;7.28;;;3.20;;
59830;SDS011;45711;50.108;13.712;2023-05-19T07:39:56;6.05;;;3.20;;
59830;SDS011;45711;50.108;13.712;2023-05-19T07:45:40;7.75;;;2.53;;
59830;SDS011;45711;50.108;13.712;2023-05-19T07:48:20;6.43;;;2.95;;
59830;SDS011;45711;50.108;13.712;2023-05-19T08:02:15;7.20;;;2.60;;
59830;SDS011;45711;50.108;13.712;2023-05-19T08:05:22;6.43;;;3.40;;
59830;SDS011;45711;50.108;13.712;2023-05-19T08:08:10;9.70;;;2.70;;
59830;SDS011;45711;50.108;13.712;2023-05-19T08:13:16;5.97;;;2.80;;
59830;SDS011;45711;50.108;13.712;2023-05-19T08:16:15;10.30;;;2.65;;
59830;SDS011;45711;50.108;13.712;2023-05-19T08:22:22;6.82;;;2.90;;
59830;SDS011;45711;50.108;13.712;2023-05-19T08:32:05;7.88;;;3.15;;
59830;SDS011;45711;50.108;13.712;2023-05-19T08:35:11;6.82;;;3.38;;
59830;SDS011;45711;50.108;13.712;2023-05-19T08:37:44;5.27;;;2.17;;
59830;SDS011;45711;50.108;13.712;2023-05-19T08:40:17;4.72;;;2.40;;
59830;SDS011;45711;50.108;13.712;2023-05-19T08:42:56;5.10;;;2.55;;
59830;SDS011;45711;50.108;13.712;2023-05-19T08:46:03;4.20;;;2.28;;
59830;SDS011;45711;50.108;13.712;2023-05-19T08:48:36;10.35;;;2.50;;
59830;SDS011;45711;50.108;13.712;2023-05-19T08:51:26;4.75;;;1.98;;
59830;SDS011;45711;50.108;13.712;2023-05-19T08:54:20;4.18;;;1.95;;
59830;SDS011;45711;50.108;13.712;2023-05-19T08:56:52;6.05;;;2.53;;
59830;SDS011;45711;50.108;13.712;2023-05-19T08:59:26;10.50;;;2.40;;
59830;SDS011;45711;50.108;13.712;2023-05-19T09:05:25;6.60;;;3.00;;
59830;SDS011;45711;50.108;13.712;2023-05-19T09:07:58;5.78;;;2.40;;
59830;SDS011;45711;50.108;13.712;2023-05-19T09:10:34;7.32;;;2.20;;
59830;SDS011;45711;50.108;13.712;2023-05-19T09:13:10;8.68;;;3.10;;
59830;SDS011;45711;50.108;13.712;2023-05-19T09:17:33;9.27;;;2.60;;
59830;SDS011;45711;50.108;13.712;2023-05-19T09:19:48;10.27;;;3.42;;
59830;SDS011;45711;50.108;13.712;2023-05-19T09:29:57;8.32;;;2.67;;
59830;SDS011;45711;50.108;13.712;2023-05-19T09:41:35;5.43;;;2.67;;
59830;SDS011;45711;50.108;13.712;2023-05-19T09:44:22;7.10;;;2.60;;
59830;SDS011;45711;50.108;13.712;2023-05-19T09:49:29;8.30;;;2.92;;
59830;SDS011;45711;50.108;13.712;2023-05-19T09:52:03;6.97;;;3.08;;
59830;SDS011;45711;50.108;13.712;2023-05-19T09:54:38;5.15;;;2.53;;
59830;SDS011;45711;50.108;13.712;2023-05-19T09:57:10;9.00;;;3.00;;
59830;SDS011;45711;50.108;13.712;2023-05-19T09:59:39;3.25;;;2.40;;
59830;SDS011;45711;50.108;13.712;2023-05-19T10:02:14;8.23;;;2.40;;
59830;SDS011;45711;50.108;13.712;2023-05-19T10:04:53;13.55;;;2.80;;
59830;SDS011;45711;50.108;13.712;2023-05-19T10:07:21;6.57;;;2.60;;
59830;SDS011;45711;50.108;13.712;2023-05-19T10:09:58;4.63;;;2.58;;
59830;SDS011;45711;50.108;13.712;2023-05-19T10:12:46;5.38;;;2.17;;
59830;SDS011;45711;50.108;13.712;2023-05-19T10:15:14;7.43;;;2.30;;
59830;SDS011;45711;50.108;13.712;2023-05-19T10:17:54;4.05;;;1.85;;
59830;SDS011;45711;50.108;13.712;2023-05-19T10:20:27;4.60;;;3.08;;
59830;SDS011;45711;50.108;13.712;2023-05-19T10:25:52;5.05;;;2.00;;
59830;SDS011;45711;50.108;13.712;2023-05-19T10:28:20;3.75;;;2.08;;
59830;SDS011;45711;50.108;13.712;2023-05-19T10:30:53;6.63;;;2.45;;
59830;SDS011;45711;50.108;13.712;2023-05-19T10:33:30;7.35;;;2.67;;
59830;SDS011;45711;50.108;13.712;2023-05-19T10:36:12;7.43;;;2.20;;
59830;SDS011;45711;50.108;13.712;2023-05-19T10:39:03;6.88;;;2.33;;
59830;SDS011;45711;50.108;13.712;2023-05-19T10:41:32;3.67;;;1.85;;
59830;SDS011;45711;50.108;13.712;2023-05-19T10:44:16;4.25;;;2.10;;
59830;SDS011;45711;50.108;13.712;2023-05-19T10:46:54;7.10;;;2.10;;
59830;SDS011;45711;50.108;13.712;2023-05-19T10:49:40;7.32;;;2.35;;
59830;SDS011;45711;50.108;13.712;2023-05-19T11:01:19;3.60;;;1.90;;
59830;SDS011;45711;50.108;13.712;2023-05-19T11:03:57;3.00;;;1.77;;
59830;SDS011;45711;50.108;13.712;2023-05-19T11:06:42;7.03;;;2.17;;
59830;SDS011;45711;50.108;13.712;2023-05-19T11:09:28;4.68;;;2.00;;
59830;SDS011;45711;50.108;13.712;2023-05-19T11:12:05;8.68;;;1.98;;
59830;SDS011;45711;50.108;13.712;2023-05-19T11:14:36;5.13;;;1.83;;
59830;SDS011;45711;50.108;13.712;2023-05-19T11:39:47;3.10;;;2.03;;
59830;SDS011;45711;50.108;13.712;2023-05-19T11:42:19;5.68;;;2.10;;
59830;SDS011;45711;50.108;13.712;2023-05-19T11:44:50;3.55;;;2.20;;
59830;SDS011;45711;50.108;13.712;2023-05-19T11:47:20;4.95;;;2.42;;
59830;SDS011;45711;50.108;13.712;2023-05-19T11:49:48;8.50;;;2.60;;
59830;SDS011;45711;50.108;13.712;2023-05-19T11:52:19;6.05;;;2.13;;
59830;SDS011;45711;50.108;13.712;2023-05-19T11:54:51;4.15;;;2.40;;
59830;SDS011;45711;50.108;13.712;2023-05-19T11:57:25;4.57;;;2.00;;
59830;SDS011;45711;50.108;13.712;2023-05-19T11:59:50;4.43;;;2.25;;
59830;SDS011;45711;50.108;13.712;2023-05-19T12:02:18;3.97;;;1.77;;
59830;SDS011;45711;50.108;13.712;2023-05-19T12:04:52;5.70;;;2.00;;
59830;SDS011;45711;50.108;13.712;2023-05-19T12:07:23;5.25;;;2.15;;
59830;SDS011;45711;50.108;13.712;2023-05-19T12:10:02;7.32;;;2.38;;
59830;SDS011;45711;50.108;13.712;2023-05-19T12:12:33;6.15;;;2.00;;
59830;SDS011;45711;50.108;13.712;2023-05-19T12:15:07;5.43;;;2.53;;
59830;SDS011;45711;50.108;13.712;2023-05-19T12:17:34;5.25;;;2.30;;
59830;SDS011;45711;50.108;13.712;2023-05-19T12:26:09;5.18;;;2.60;;
59830;SDS011;45711;50.108;13.712;2023-05-19T12:28:43;8.52;;;2.78;;
59830;SDS011;45711;50.108;13.712;2023-05-19T12:31:26;3.72;;;2.22;;
59830;SDS011;45711;50.108;13.712;2023-05-19T12:34:21;11.00;;;2.20;;
59830;SDS011;45711;50.108;13.712;2023-05-19T12:36:54;2.45;;;1.80;;
59830;SDS011;45711;50.108;13.712;2023-05-19T12:39:44;9.05;;;2.00;;
59830;SDS011;45711;50.108;13.712;2023-05-19T12:45:27;10.02;;;1.88;;
59830;SDS011;45711;50.108;13.712;2023-05-19T12:48:24;2.78;;;1.80;;
59830;SDS011;45711;50.108;13.712;2023-05-19T12:51:25;3.33;;;1.83;;
59830;SDS011;45711;50.108;13.712;2023-05-19T12:58:05;3.33;;;1.90;;
59830;SDS011;45711;50.108;13.712;2023-05-19T13:01:03;4.13;;;1.90;;
59830;SDS011;45711;50.108;13.712;2023-05-19T13:04:41;7.43;;;2.10;;
59830;SDS011;45711;50.108;13.712;2023-05-19T13:12:19;3.53;;;1.50;;
59830;SDS011;45711;50.108;13.712;2023-05-19T13:16:51;4.80;;;2.27;;
59830;SDS011;45711;50.108;13.712;2023-05-19T13:19:19;8.10;;;2.10;;
59830;SDS011;45711;50.108;13.712;2023-05-19T13:21:59;4.75;;;2.17;;
59830;SDS011;45711;50.108;13.712;2023-05-19T13:24:28;6.63;;;2.08;;
59830;SDS011;45711;50.108;13.712;2023-05-19T13:27:06;3.15;;;2.10;;
59830;SDS011;45711;50.108;13.712;2023-05-19T13:29:39;3.17;;;1.88;;
59830;SDS011;45711;50.108;13.712;2023-05-19T13:32:18;6.53;;;2.50;;
59830;SDS011;45711;50.108;13.712;2023-05-19T13:34:52;8.52;;;1.95;;
59830;SDS011;45711;50.108;13.712;2023-05-19T13:37:26;9.38;;;1.80;;
59830;SDS011;45711;50.108;13.712;2023-05-19T13:40:01;6.40;;;2.00;;
59830;SDS011;45711;50.108;13.712;2023-05-19T13:42:38;6.50;;;2.05;;
59830;SDS011;45711;50.108;13.712;2023-05-19T13:48:34;5.55;;;2.20;;
59830;SDS011;45711;50.108;13.712;2023-05-19T13:52:46;4.30;;;1.90;;
59830;SDS011;45711;50.108;13.712;2023-05-19T13:55:04;7.65;;;2.40;;
59830;SDS011;45711;50.108;13.712;2023-05-19T16:01:12;4.90;;;3.03;;
59830;SDS011;45711;50.108;13.712;2023-05-19T16:03:37;7.05;;;3.33;;
59830;SDS011;45711;50.108;13.712;2023-05-19T16:09:17;4.63;;;3.10;;
59830;SDS011;45711;50.108;13.712;2023-05-19T16:12:10;4.63;;;2.42;;
59830;SDS011;45711;50.108;13.712;2023-05-19T16:34:23;4.93;;;2.40;;
59830;SDS011;45711;50.108;13.712;2023-05-19T16:56:59;4.20;;;2.83;;
59830;SDS011;45711;50.108;13.712;2023-05-19T17:00:28;3.60;;;2.55;;
59830;SDS011;45711;50.108;13.712;2023-05-19T17:09:11;38.92;;;4.07;;
59830;SDS011;45711;50.108;13.712;2023-05-19T17:18:40;6.85;;;3.95;;
59830;SDS011;45711;50.108;13.712;2023-05-19T17:25:00;6.93;;;3.55;;
59830;SDS011;45711;50.108;13.712;2023-05-19T17:37:53;12.63;;;3.90;;
59830;SDS011;45711;50.108;13.712;2023-05-19T17:45:33;13.67;;;5.67;;
59830;SDS011;45711;50.108;13.712;2023-05-19T17:58:04;4.60;;;3.30;;
59830;SDS011;45711;50.108;13.712;2023-05-19T18:01:23;6.47;;;3.63;;
59830;SDS011;45711;50.108;13.712;2023-05-19T18:08:34;8.57;;;3.85;;
59830;SDS011;45711;50.108;13.712;2023-05-19T18:14:23;5.70;;;3.70;;
59830;SDS011;45711;50.108;13.712;2023-05-19T18:19:05;8.57;;;4.70;;
59830;SDS011;45711;50.108;13.712;2023-05-19T18:43:00;7.47;;;4.60;;
59830;SDS011;45711;50.108;13.712;2023-05-19T18:57:30;5.88;;;4.13;;
59830;SDS011;45711;50.108;13.712;2023-05-19T19:07:38;7.65;;;3.65;;
59830;SDS011;45711;50.108;13.712;2023-05-19T19:10:04;5.03;;;3.10;;
59830;SDS011;45711;50.108;13.712;2023-05-19T19:12:32;7.82;;;3.60;;
59830;SDS011;45711;50.108;13.712;2023-05-19T19:14:57;4.97;;;3.78;;
59830;SDS011;45711;50.108;13.712;2023-05-19T19:17:29;4.78;;;3.55;;
59830;SDS011;45711;50.108;13.712;2023-05-19T19:19:57;6.35;;;3.97;;
59830;SDS011;45711;50.108;13.712;2023-05-19T19:22:28;7.78;;;4.43;;
59830;SDS011;45711;50.108;13.712;2023-05-19T19:24:59;9.75;;;4.75;;
59830;SDS011;45711;50.108;13.712;2023-05-19T19:28:02;8.88;;;4.32;;
59830;SDS011;45711;50.108;13.712;2023-05-19T19:30:47;10.18;;;4.30;;
59830;SDS011;45711;50.108;13.712;2023-05-19T19:33:48;7.82;;;4.25;;
